sensor_id;sensor_type;location;lat;lon;timestamp;P1;durP1;ratioP1;P2;durP2;ratioP2
18853;SDS011;9556;49.374;19.446;2022-11-20T00:01:23;266.30;;;152.07;;
18853;SDS011;9556;49.374;19.446;2022-11-20T00:03:51;258.25;;;148.80;;
18853;SDS011;9556;49.374;19.446;2022-11-20T00:06:19;264.60;;;153.25;;
18853;SDS011;9556;49.374;19.446;2022-11-20T00:08:46;263.27;;;151.20;;
18853;SDS011;9556;49.374;19.446;2022-11-20T00:11:14;272.10;;;153.90;;
18853;SDS011;9556;49.374;19.446;2022-11-20T00:13:42;270.00;;;153.85;;
18853;SDS011;9556;49.374;19.446;2022-11-20T00:16:09;267.80;;;155.63;;
18853;SDS011;9556;49.374;19.446;2022-11-20T00:18:38;280.13;;;157.07;;
18853;SDS011;9556;49.374;19.446;2022-11-20T00:21:09;286.48;;;160.30;;
18853;SDS011;9556;49.374;19.446;2022-11-20T00:23:37;279.35;;;157.55;;
18853;SDS011;9556;49.374;19.446;2022-11-20T00:26:04;285.35;;;165.13;;
18853;SDS011;9556;49.374;19.446;2022-11-20T00:28:32;288.75;;;162.10;;
18853;SDS011;9556;49.374;19.446;2022-11-20T00:31:00;277.95;;;160.82;;
18853;SDS011;9556;49.374;19.446;2022-11-20T00:33:27;266.65;;;152.57;;
18853;SDS011;9556;49.374;19.446;2022-11-20T00:35:59;259.35;;;151.07;;
18853;SDS011;9556;49.374;19.446;2022-11-20T00:38:27;266.20;;;154.20;;
18853;SDS011;9556;49.374;19.446;2022-11-20T00:40:55;259.40;;;148.52;;
18853;SDS011;9556;49.374;19.446;2022-11-20T00:43:23;258.80;;;146.95;;
18853;SDS011;9556;49.374;19.446;2022-11-20T00:45:50;262.80;;;148.40;;
18853;SDS011;9556;49.374;19.446;2022-11-20T00:48:17;278.30;;;155.85;;
18853;SDS011;9556;49.374;19.446;2022-11-20T00:50:44;277.40;;;157.82;;
18853;SDS011;9556;49.374;19.446;2022-11-20T00:53:13;284.83;;;164.80;;
18853;SDS011;9556;49.374;19.446;2022-11-20T00:55:40;280.90;;;161.68;;
18853;SDS011;9556;49.374;19.446;2022-11-20T00:58:08;291.95;;;165.40;;
18853;SDS011;9556;49.374;19.446;2022-11-20T01:00:35;293.67;;;166.40;;
18853;SDS011;9556;49.374;19.446;2022-11-20T01:03:02;297.20;;;168.30;;
18853;SDS011;9556;49.374;19.446;2022-11-20T01:05:33;298.65;;;168.25;;
18853;SDS011;9556;49.374;19.446;2022-11-20T01:08:00;293.42;;;167.13;;
18853;SDS011;9556;49.374;19.446;2022-11-20T01:10:29;303.60;;;169.57;;
18853;SDS011;9556;49.374;19.446;2022-11-20T01:12:56;302.35;;;171.40;;
18853;SDS011;9556;49.374;19.446;2022-11-20T01:15:37;308.40;;;171.18;;
18853;SDS011;9556;49.374;19.446;2022-11-20T01:18:04;301.10;;;173.38;;
18853;SDS011;9556;49.374;19.446;2022-11-20T01:20:33;297.92;;;171.02;;
18853;SDS011;9556;49.374;19.446;2022-11-20T01:23:00;299.10;;;171.15;;
18853;SDS011;9556;49.374;19.446;2022-11-20T01:25:29;311.60;;;177.43;;
18853;SDS011;9556;49.374;19.446;2022-11-20T01:27:56;311.77;;;176.82;;
18853;SDS011;9556;49.374;19.446;2022-11-20T01:30:23;308.98;;;175.88;;
18853;SDS011;9556;49.374;19.446;2022-11-20T01:32:50;288.50;;;164.00;;
18853;SDS011;9556;49.374;19.446;2022-11-20T01:35:18;287.52;;;162.07;;
18853;SDS011;9556;49.374;19.446;2022-11-20T01:37:45;284.05;;;161.95;;
18853;SDS011;9556;49.374;19.446;2022-11-20T01:40:12;296.50;;;163.20;;
18853;SDS011;9556;49.374;19.446;2022-11-20T01:42:44;278.52;;;157.70;;
18853;SDS011;9556;49.374;19.446;2022-11-20T01:45:52;283.70;;;160.68;;
18853;SDS011;9556;49.374;19.446;2022-11-20T01:48:23;309.50;;;173.63;;
18853;SDS011;9556;49.374;19.446;2022-11-20T01:50:51;307.35;;;176.02;;
18853;SDS011;9556;49.374;19.446;2022-11-20T01:53:18;320.63;;;180.27;;
18853;SDS011;9556;49.374;19.446;2022-11-20T01:55:48;317.67;;;180.82;;
18853;SDS011;9556;49.374;19.446;2022-11-20T01:58:17;321.92;;;182.82;;
18853;SDS011;9556;49.374;19.446;2022-11-20T02:00:45;320.50;;;185.20;;
18853;SDS011;9556;49.374;19.446;2022-11-20T02:03:14;311.17;;;180.85;;
18853;SDS011;9556;49.374;19.446;2022-11-20T02:05:43;306.20;;;176.95;;
18853;SDS011;9556;49.374;19.446;2022-11-20T02:08:12;331.00;;;188.85;;
18853;SDS011;9556;49.374;19.446;2022-11-20T02:10:39;322.52;;;188.35;;
18853;SDS011;9556;49.374;19.446;2022-11-20T02:13:06;326.63;;;191.60;;
18853;SDS011;9556;49.374;19.446;2022-11-20T02:15:53;329.92;;;190.23;;
18853;SDS011;9556;49.374;19.446;2022-11-20T02:18:21;336.88;;;192.25;;
18853;SDS011;9556;49.374;19.446;2022-11-20T02:20:49;329.77;;;193.60;;
18853;SDS011;9556;49.374;19.446;2022-11-20T02:23:18;339.15;;;194.32;;
18853;SDS011;9556;49.374;19.446;2022-11-20T02:25:49;333.23;;;191.57;;
18853;SDS011;9556;49.374;19.446;2022-11-20T02:28:18;330.23;;;195.35;;
18853;SDS011;9556;49.374;19.446;2022-11-20T02:30:45;345.60;;;200.25;;
18853;SDS011;9556;49.374;19.446;2022-11-20T02:33:12;322.20;;;184.73;;
18853;SDS011;9556;49.374;19.446;2022-11-20T02:35:41;324.67;;;184.88;;
18853;SDS011;9556;49.374;19.446;2022-11-20T02:38:08;306.55;;;175.57;;
18853;SDS011;9556;49.374;19.446;2022-11-20T02:40:36;308.67;;;180.27;;
18853;SDS011;9556;49.374;19.446;2022-11-20T02:43:04;304.23;;;179.15;;
18853;SDS011;9556;49.374;19.446;2022-11-20T02:45:31;314.20;;;181.23;;
18853;SDS011;9556;49.374;19.446;2022-11-20T02:47:59;328.00;;;189.45;;
18853;SDS011;9556;49.374;19.446;2022-11-20T02:50:26;330.23;;;193.98;;
18853;SDS011;9556;49.374;19.446;2022-11-20T02:52:53;344.20;;;197.98;;
18853;SDS011;9556;49.374;19.446;2022-11-20T02:55:20;338.85;;;193.13;;
18853;SDS011;9556;49.374;19.446;2022-11-20T02:57:47;339.33;;;199.13;;
18853;SDS011;9556;49.374;19.446;2022-11-20T03:00:16;344.20;;;200.77;;
18853;SDS011;9556;49.374;19.446;2022-11-20T03:02:43;339.85;;;197.75;;
18853;SDS011;9556;49.374;19.446;2022-11-20T03:05:10;343.23;;;198.88;;
18853;SDS011;9556;49.374;19.446;2022-11-20T03:07:37;347.10;;;199.30;;
18853;SDS011;9556;49.374;19.446;2022-11-20T03:10:05;339.27;;;197.75;;
18853;SDS011;9556;49.374;19.446;2022-11-20T03:12:32;346.08;;;201.80;;
18853;SDS011;9556;49.374;19.446;2022-11-20T03:14:59;343.23;;;201.70;;
18853;SDS011;9556;49.374;19.446;2022-11-20T03:17:28;349.10;;;201.73;;
18853;SDS011;9556;49.374;19.446;2022-11-20T03:19:55;347.83;;;202.82;;
18853;SDS011;9556;49.374;19.446;2022-11-20T03:22:22;347.02;;;203.52;;
18853;SDS011;9556;49.374;19.446;2022-11-20T03:24:50;347.48;;;204.43;;
18853;SDS011;9556;49.374;19.446;2022-11-20T03:27:17;361.17;;;206.18;;
18853;SDS011;9556;49.374;19.446;2022-11-20T03:29:44;339.20;;;201.30;;
18853;SDS011;9556;49.374;19.446;2022-11-20T03:32:11;346.08;;;201.65;;
18853;SDS011;9556;49.374;19.446;2022-11-20T03:34:39;335.10;;;190.80;;
18853;SDS011;9556;49.374;19.446;2022-11-20T03:37:07;339.17;;;195.43;;
18853;SDS011;9556;49.374;19.446;2022-11-20T03:39:34;327.92;;;186.73;;
18853;SDS011;9556;49.374;19.446;2022-11-20T03:42:01;332.58;;;187.65;;
18853;SDS011;9556;49.374;19.446;2022-11-20T03:44:48;325.38;;;182.88;;
18853;SDS011;9556;49.374;19.446;2022-11-20T03:47:15;353.60;;;206.25;;
18853;SDS011;9556;49.374;19.446;2022-11-20T03:49:44;342.58;;;198.55;;
18853;SDS011;9556;49.374;19.446;2022-11-20T03:52:11;367.33;;;211.48;;
18853;SDS011;9556;49.374;19.446;2022-11-20T03:54:38;360.73;;;207.90;;
18853;SDS011;9556;49.374;19.446;2022-11-20T03:57:05;360.50;;;207.80;;
18853;SDS011;9556;49.374;19.446;2022-11-20T03:59:32;367.83;;;210.93;;
18853;SDS011;9556;49.374;19.446;2022-11-20T04:01:59;362.58;;;212.10;;
18853;SDS011;9556;49.374;19.446;2022-11-20T04:04:27;372.88;;;213.63;;
18853;SDS011;9556;49.374;19.446;2022-11-20T04:06:55;364.10;;;212.73;;
18853;SDS011;9556;49.374;19.446;2022-11-20T04:09:22;367.20;;;212.30;;
18853;SDS011;9556;49.374;19.446;2022-11-20T04:11:49;366.63;;;212.18;;
18853;SDS011;9556;49.374;19.446;2022-11-20T04:14:16;367.63;;;214.98;;
18853;SDS011;9556;49.374;19.446;2022-11-20T04:16:43;365.77;;;214.93;;
18853;SDS011;9556;49.374;19.446;2022-11-20T04:19:11;371.45;;;217.18;;
18853;SDS011;9556;49.374;19.446;2022-11-20T04:21:39;360.45;;;212.77;;
18853;SDS011;9556;49.374;19.446;2022-11-20T04:24:07;369.35;;;210.40;;
18853;SDS011;9556;49.374;19.446;2022-11-20T04:26:35;374.55;;;214.23;;
18853;SDS011;9556;49.374;19.446;2022-11-20T04:29:03;375.35;;;213.73;;
18853;SDS011;9556;49.374;19.446;2022-11-20T04:31:31;362.90;;;212.35;;
18853;SDS011;9556;49.374;19.446;2022-11-20T04:33:59;357.55;;;206.98;;
18853;SDS011;9556;49.374;19.446;2022-11-20T04:36:26;338.55;;;195.70;;
18853;SDS011;9556;49.374;19.446;2022-11-20T04:38:54;338.50;;;195.57;;
18853;SDS011;9556;49.374;19.446;2022-11-20T04:41:23;355.17;;;204.93;;
18853;SDS011;9556;49.374;19.446;2022-11-20T04:43:51;342.38;;;193.73;;
18853;SDS011;9556;49.374;19.446;2022-11-20T04:46:24;350.02;;;205.10;;
18853;SDS011;9556;49.374;19.446;2022-11-20T04:48:51;357.58;;;205.70;;
18853;SDS011;9556;49.374;19.446;2022-11-20T04:51:18;368.98;;;212.48;;
18853;SDS011;9556;49.374;19.446;2022-11-20T04:53:45;379.90;;;215.55;;
18853;SDS011;9556;49.374;19.446;2022-11-20T04:56:13;365.27;;;212.35;;
18853;SDS011;9556;49.374;19.446;2022-11-20T04:58:41;369.98;;;215.02;;
18853;SDS011;9556;49.374;19.446;2022-11-20T05:01:09;373.50;;;215.38;;
18853;SDS011;9556;49.374;19.446;2022-11-20T05:03:37;352.85;;;207.77;;
18853;SDS011;9556;49.374;19.446;2022-11-20T05:06:04;366.48;;;214.25;;
18853;SDS011;9556;49.374;19.446;2022-11-20T05:08:32;367.25;;;215.77;;
18853;SDS011;9556;49.374;19.446;2022-11-20T05:10:59;362.40;;;211.93;;
18853;SDS011;9556;49.374;19.446;2022-11-20T05:13:26;369.55;;;215.75;;
18853;SDS011;9556;49.374;19.446;2022-11-20T05:15:55;378.75;;;221.77;;
18853;SDS011;9556;49.374;19.446;2022-11-20T05:18:22;381.75;;;219.68;;
18853;SDS011;9556;49.374;19.446;2022-11-20T05:20:54;375.55;;;216.30;;
18853;SDS011;9556;49.374;19.446;2022-11-20T05:23:21;378.40;;;221.45;;
18853;SDS011;9556;49.374;19.446;2022-11-20T05:25:48;381.02;;;221.95;;
18853;SDS011;9556;49.374;19.446;2022-11-20T05:28:18;383.65;;;220.00;;
18853;SDS011;9556;49.374;19.446;2022-11-20T05:30:45;377.00;;;220.68;;
18853;SDS011;9556;49.374;19.446;2022-11-20T05:33:13;365.45;;;209.57;;
18853;SDS011;9556;49.374;19.446;2022-11-20T05:35:41;361.52;;;207.05;;
18853;SDS011;9556;49.374;19.446;2022-11-20T05:38:08;349.42;;;199.98;;
18853;SDS011;9556;49.374;19.446;2022-11-20T05:40:35;361.15;;;205.32;;
18853;SDS011;9556;49.374;19.446;2022-11-20T05:43:02;345.23;;;198.57;;
18853;SDS011;9556;49.374;19.446;2022-11-20T05:45:29;325.80;;;187.48;;
18853;SDS011;9556;49.374;19.446;2022-11-20T05:47:57;347.05;;;200.93;;
18853;SDS011;9556;49.374;19.446;2022-11-20T05:50:27;356.52;;;201.93;;
18853;SDS011;9556;49.374;19.446;2022-11-20T05:52:54;351.63;;;203.10;;
18853;SDS011;9556;49.374;19.446;2022-11-20T05:55:21;344.92;;;198.95;;
18853;SDS011;9556;49.374;19.446;2022-11-20T05:57:48;352.13;;;201.90;;
18853;SDS011;9556;49.374;19.446;2022-11-20T06:00:15;346.50;;;198.77;;
18853;SDS011;9556;49.374;19.446;2022-11-20T06:02:42;335.90;;;197.55;;
18853;SDS011;9556;49.374;19.446;2022-11-20T06:05:10;332.15;;;192.75;;
18853;SDS011;9556;49.374;19.446;2022-11-20T06:07:38;334.27;;;190.40;;
18853;SDS011;9556;49.374;19.446;2022-11-20T06:10:05;334.00;;;195.43;;
18853;SDS011;9556;49.374;19.446;2022-11-20T06:12:32;335.88;;;194.43;;
18853;SDS011;9556;49.374;19.446;2022-11-20T06:15:00;332.85;;;186.60;;
18853;SDS011;9556;49.374;19.446;2022-11-20T06:17:27;327.20;;;186.48;;
18853;SDS011;9556;49.374;19.446;2022-11-20T06:19:54;328.15;;;186.07;;
18853;SDS011;9556;49.374;19.446;2022-11-20T06:22:21;324.27;;;183.73;;
18853;SDS011;9556;49.374;19.446;2022-11-20T06:24:49;326.90;;;181.13;;
18853;SDS011;9556;49.374;19.446;2022-11-20T06:27:17;323.67;;;185.20;;
18853;SDS011;9556;49.374;19.446;2022-11-20T06:29:44;317.38;;;179.50;;
18853;SDS011;9556;49.374;19.446;2022-11-20T06:32:11;304.95;;;174.15;;
18853;SDS011;9556;49.374;19.446;2022-11-20T06:34:38;293.42;;;169.43;;
18853;SDS011;9556;49.374;19.446;2022-11-20T06:37:05;287.95;;;162.20;;
18853;SDS011;9556;49.374;19.446;2022-11-20T06:39:32;282.10;;;158.45;;
18853;SDS011;9556;49.374;19.446;2022-11-20T06:42:01;290.35;;;162.25;;
18853;SDS011;9556;49.374;19.446;2022-11-20T06:44:28;278.30;;;155.75;;
18853;SDS011;9556;49.374;19.446;2022-11-20T06:46:55;279.95;;;156.80;;
18853;SDS011;9556;49.374;19.446;2022-11-20T06:49:22;279.83;;;156.82;;
18853;SDS011;9556;49.374;19.446;2022-11-20T06:51:50;274.42;;;157.00;;
18853;SDS011;9556;49.374;19.446;2022-11-20T06:54:17;270.65;;;153.20;;
18853;SDS011;9556;49.374;19.446;2022-11-20T06:56:46;272.35;;;153.02;;
18853;SDS011;9556;49.374;19.446;2022-11-20T06:59:15;269.92;;;152.80;;
18853;SDS011;9556;49.374;19.446;2022-11-20T07:01:42;264.38;;;152.27;;
18853;SDS011;9556;49.374;19.446;2022-11-20T07:04:09;268.13;;;153.52;;
18853;SDS011;9556;49.374;19.446;2022-11-20T07:06:36;269.48;;;150.07;;
18853;SDS011;9556;49.374;19.446;2022-11-20T07:09:03;263.90;;;148.05;;
18853;SDS011;9556;49.374;19.446;2022-11-20T07:11:30;259.30;;;148.30;;
18853;SDS011;9556;49.374;19.446;2022-11-20T07:13:57;257.85;;;146.40;;
18853;SDS011;9556;49.374;19.446;2022-11-20T07:16:26;252.50;;;143.98;;
18853;SDS011;9556;49.374;19.446;2022-11-20T07:18:53;248.60;;;143.40;;
18853;SDS011;9556;49.374;19.446;2022-11-20T07:21:20;244.65;;;141.57;;
18853;SDS011;9556;49.374;19.446;2022-11-20T07:23:47;251.52;;;142.73;;
18853;SDS011;9556;49.374;19.446;2022-11-20T07:26:14;248.73;;;141.38;;
18853;SDS011;9556;49.374;19.446;2022-11-20T07:28:43;245.90;;;141.20;;
18853;SDS011;9556;49.374;19.446;2022-11-20T07:31:10;251.65;;;141.05;;
18853;SDS011;9556;49.374;19.446;2022-11-20T07:33:39;237.52;;;135.82;;
18853;SDS011;9556;49.374;19.446;2022-11-20T07:36:06;233.77;;;134.75;;
18853;SDS011;9556;49.374;19.446;2022-11-20T07:38:33;225.20;;;130.38;;
18853;SDS011;9556;49.374;19.446;2022-11-20T07:41:01;228.85;;;127.65;;
18853;SDS011;9556;49.374;19.446;2022-11-20T07:43:28;216.80;;;123.30;;
18853;SDS011;9556;49.374;19.446;2022-11-20T07:45:55;218.02;;;123.30;;
18853;SDS011;9556;49.374;19.446;2022-11-20T07:48:23;215.80;;;124.75;;
18853;SDS011;9556;49.374;19.446;2022-11-20T07:50:54;222.07;;;123.15;;
18853;SDS011;9556;49.374;19.446;2022-11-20T07:53:21;207.20;;;120.15;;
18853;SDS011;9556;49.374;19.446;2022-11-20T07:55:48;212.10;;;120.45;;
18853;SDS011;9556;49.374;19.446;2022-11-20T07:58:17;205.15;;;119.38;;
18853;SDS011;9556;49.374;19.446;2022-11-20T08:00:45;200.00;;;118.15;;
18853;SDS011;9556;49.374;19.446;2022-11-20T08:03:12;208.57;;;118.22;;
18853;SDS011;9556;49.374;19.446;2022-11-20T08:05:39;197.88;;;117.53;;
18853;SDS011;9556;49.374;19.446;2022-11-20T08:08:07;219.05;;;116.50;;
18853;SDS011;9556;49.374;19.446;2022-11-20T08:10:35;217.95;;;116.43;;
18853;SDS011;9556;49.374;19.446;2022-11-20T08:13:02;203.07;;;115.00;;
18853;SDS011;9556;49.374;19.446;2022-11-20T08:15:47;204.70;;;113.70;;
18853;SDS011;9556;49.374;19.446;2022-11-20T08:18:15;193.57;;;111.57;;
18853;SDS011;9556;49.374;19.446;2022-11-20T08:20:42;206.82;;;111.03;;
18853;SDS011;9556;49.374;19.446;2022-11-20T08:23:10;203.48;;;109.05;;
18853;SDS011;9556;49.374;19.446;2022-11-20T08:25:38;200.68;;;109.30;;
18853;SDS011;9556;49.374;19.446;2022-11-20T08:28:06;188.75;;;108.93;;
18853;SDS011;9556;49.374;19.446;2022-11-20T08:30:34;189.38;;;106.43;;
18853;SDS011;9556;49.374;19.446;2022-11-20T08:33:01;187.88;;;107.15;;
18853;SDS011;9556;49.374;19.446;2022-11-20T08:35:32;175.18;;;102.63;;
18853;SDS011;9556;49.374;19.446;2022-11-20T08:38:00;186.00;;;102.50;;
18853;SDS011;9556;49.374;19.446;2022-11-20T08:40:29;185.73;;;99.97;;
18853;SDS011;9556;49.374;19.446;2022-11-20T08:42:56;185.93;;;100.80;;
18853;SDS011;9556;49.374;19.446;2022-11-20T08:45:23;164.95;;;97.13;;
18853;SDS011;9556;49.374;19.446;2022-11-20T08:47:51;168.27;;;95.40;;
18853;SDS011;9556;49.374;19.446;2022-11-20T08:50:18;167.43;;;94.32;;
18853;SDS011;9556;49.374;19.446;2022-11-20T08:52:45;172.00;;;97.47;;
18853;SDS011;9556;49.374;19.446;2022-11-20T08:55:12;175.60;;;95.50;;
18853;SDS011;9556;49.374;19.446;2022-11-20T08:57:40;152.57;;;91.25;;
18853;SDS011;9556;49.374;19.446;2022-11-20T09:00:09;155.98;;;90.05;;
18853;SDS011;9556;49.374;19.446;2022-11-20T09:02:37;154.00;;;88.47;;
18853;SDS011;9556;49.374;19.446;2022-11-20T09:05:04;161.10;;;90.68;;
18853;SDS011;9556;49.374;19.446;2022-11-20T09:07:31;153.45;;;90.28;;
18853;SDS011;9556;49.374;19.446;2022-11-20T09:09:59;185.52;;;95.75;;
18853;SDS011;9556;49.374;19.446;2022-11-20T09:12:26;171.40;;;94.20;;
18853;SDS011;9556;49.374;19.446;2022-11-20T09:14:54;176.82;;;91.82;;
18853;SDS011;9556;49.374;19.446;2022-11-20T09:17:22;174.73;;;89.75;;
18853;SDS011;9556;49.374;19.446;2022-11-20T09:19:49;168.57;;;88.20;;
18853;SDS011;9556;49.374;19.446;2022-11-20T09:22:16;163.85;;;88.45;;
18853;SDS011;9556;49.374;19.446;2022-11-20T09:24:43;163.88;;;85.28;;
18853;SDS011;9556;49.374;19.446;2022-11-20T09:27:10;168.77;;;86.72;;
18853;SDS011;9556;49.374;19.446;2022-11-20T09:29:37;154.77;;;85.30;;
18853;SDS011;9556;49.374;19.446;2022-11-20T09:32:06;173.32;;;80.60;;
18853;SDS011;9556;49.374;19.446;2022-11-20T09:34:33;146.70;;;79.97;;
18853;SDS011;9556;49.374;19.446;2022-11-20T09:37:00;148.13;;;79.85;;
18853;SDS011;9556;49.374;19.446;2022-11-20T09:39:27;145.25;;;78.55;;
18853;SDS011;9556;49.374;19.446;2022-11-20T09:44:48;325.83;;;105.63;;
18853;SDS011;9556;49.374;19.446;2022-11-20T09:47:23;204.15;;;85.97;;
18853;SDS011;9556;49.374;19.446;2022-11-20T09:49:55;188.82;;;82.72;;
18853;SDS011;9556;49.374;19.446;2022-11-20T09:52:28;174.52;;;76.90;;
18853;SDS011;9556;49.374;19.446;2022-11-20T09:55:00;161.48;;;76.22;;
18853;SDS011;9556;49.374;19.446;2022-11-20T09:57:31;156.90;;;74.22;;
18853;SDS011;9556;49.374;19.446;2022-11-20T10:00:00;157.25;;;75.20;;
18853;SDS011;9556;49.374;19.446;2022-11-20T10:02:29;166.63;;;76.57;;
18853;SDS011;9556;49.374;19.446;2022-11-20T10:04:59;158.82;;;75.43;;
18853;SDS011;9556;49.374;19.446;2022-11-20T10:07:29;151.18;;;71.60;;
18853;SDS011;9556;49.374;19.446;2022-11-20T10:09:56;157.75;;;74.07;;
18853;SDS011;9556;49.374;19.446;2022-11-20T10:12:26;153.07;;;72.00;;
18853;SDS011;9556;49.374;19.446;2022-11-20T10:15:05;146.73;;;69.90;;
18853;SDS011;9556;49.374;19.446;2022-11-20T10:17:42;143.85;;;72.30;;
18853;SDS011;9556;49.374;19.446;2022-11-20T10:20:17;141.73;;;71.03;;
18853;SDS011;9556;49.374;19.446;2022-11-20T10:22:50;149.15;;;69.50;;
18853;SDS011;9556;49.374;19.446;2022-11-20T10:25:22;172.30;;;68.43;;
18853;SDS011;9556;49.374;19.446;2022-11-20T10:30:36;162.40;;;70.53;;
18853;SDS011;9556;49.374;19.446;2022-11-20T10:33:06;151.55;;;71.80;;
18853;SDS011;9556;49.374;19.446;2022-11-20T10:35:36;138.63;;;69.00;;
18853;SDS011;9556;49.374;19.446;2022-11-20T10:38:08;146.30;;;70.65;;
18853;SDS011;9556;49.374;19.446;2022-11-20T10:40:37;136.38;;;69.40;;
18853;SDS011;9556;49.374;19.446;2022-11-20T10:43:08;141.00;;;68.53;;
18853;SDS011;9556;49.374;19.446;2022-11-20T10:45:40;147.32;;;66.20;;
18853;SDS011;9556;49.374;19.446;2022-11-20T10:48:12;126.90;;;64.05;;
18853;SDS011;9556;49.374;19.446;2022-11-20T10:50:45;124.65;;;62.90;;
18853;SDS011;9556;49.374;19.446;2022-11-20T10:53:16;136.35;;;64.35;;
18853;SDS011;9556;49.374;19.446;2022-11-20T10:55:50;143.57;;;61.60;;
18853;SDS011;9556;49.374;19.446;2022-11-20T10:58:19;124.90;;;64.15;;
18853;SDS011;9556;49.374;19.446;2022-11-20T11:00:47;129.05;;;62.90;;
18853;SDS011;9556;49.374;19.446;2022-11-20T11:03:20;134.43;;;63.42;;
18853;SDS011;9556;49.374;19.446;2022-11-20T11:05:50;127.72;;;63.40;;
18853;SDS011;9556;49.374;19.446;2022-11-20T11:08:18;129.95;;;62.85;;
18853;SDS011;9556;49.374;19.446;2022-11-20T11:10:46;115.28;;;60.63;;
18853;SDS011;9556;49.374;19.446;2022-11-20T11:13:21;120.18;;;62.45;;
18853;SDS011;9556;49.374;19.446;2022-11-20T11:15:49;130.52;;;62.17;;
18853;SDS011;9556;49.374;19.446;2022-11-20T11:18:25;118.70;;;62.38;;
18853;SDS011;9556;49.374;19.446;2022-11-20T11:20:53;115.68;;;60.97;;
18853;SDS011;9556;49.374;19.446;2022-11-20T11:23:29;124.20;;;60.03;;
18853;SDS011;9556;49.374;19.446;2022-11-20T11:25:57;129.95;;;59.10;;
18853;SDS011;9556;49.374;19.446;2022-11-20T11:28:25;117.10;;;58.42;;
18853;SDS011;9556;49.374;19.446;2022-11-20T11:30:53;129.43;;;58.70;;
18853;SDS011;9556;49.374;19.446;2022-11-20T11:33:21;127.00;;;58.42;;
18853;SDS011;9556;49.374;19.446;2022-11-20T11:35:50;129.02;;;58.05;;
18853;SDS011;9556;49.374;19.446;2022-11-20T11:38:19;116.15;;;56.00;;
18853;SDS011;9556;49.374;19.446;2022-11-20T11:40:48;109.38;;;54.55;;
18853;SDS011;9556;49.374;19.446;2022-11-20T11:43:16;103.55;;;54.10;;
18853;SDS011;9556;49.374;19.446;2022-11-20T11:45:58;109.28;;;53.58;;
18853;SDS011;9556;49.374;19.446;2022-11-20T11:48:25;100.10;;;51.78;;
18853;SDS011;9556;49.374;19.446;2022-11-20T11:50:54;108.40;;;53.35;;
18853;SDS011;9556;49.374;19.446;2022-11-20T11:53:21;122.10;;;54.25;;
18853;SDS011;9556;49.374;19.446;2022-11-20T11:55:50;167.63;;;68.38;;
18853;SDS011;9556;49.374;19.446;2022-11-20T11:58:30;170.70;;;76.40;;
18853;SDS011;9556;49.374;19.446;2022-11-20T12:01:02;135.90;;;66.70;;
18853;SDS011;9556;49.374;19.446;2022-11-20T12:03:33;135.55;;;60.72;;
18853;SDS011;9556;49.374;19.446;2022-11-20T12:06:03;120.60;;;58.00;;
18853;SDS011;9556;49.374;19.446;2022-11-20T12:08:32;122.60;;;59.60;;
18853;SDS011;9556;49.374;19.446;2022-11-20T12:11:04;121.78;;;58.08;;
18853;SDS011;9556;49.374;19.446;2022-11-20T12:13:39;151.55;;;71.25;;
18853;SDS011;9556;49.374;19.446;2022-11-20T12:16:10;132.68;;;66.35;;
18853;SDS011;9556;49.374;19.446;2022-11-20T12:18:38;131.18;;;59.97;;
18853;SDS011;9556;49.374;19.446;2022-11-20T12:21:09;132.05;;;56.58;;
18853;SDS011;9556;49.374;19.446;2022-11-20T12:23:41;126.68;;;56.95;;
18853;SDS011;9556;49.374;19.446;2022-11-20T12:26:12;115.10;;;56.22;;
18853;SDS011;9556;49.374;19.446;2022-11-20T12:28:46;125.30;;;54.25;;
18853;SDS011;9556;49.374;19.446;2022-11-20T12:31:22;109.68;;;55.67;;
18853;SDS011;9556;49.374;19.446;2022-11-20T12:34:05;108.88;;;54.75;;
18853;SDS011;9556;49.374;19.446;2022-11-20T12:36:39;99.38;;;53.78;;
18853;SDS011;9556;49.374;19.446;2022-11-20T12:47:53;90.70;;;47.47;;
18853;SDS011;9556;49.374;19.446;2022-11-20T12:50:27;93.15;;;47.95;;
18853;SDS011;9556;49.374;19.446;2022-11-20T12:52:57;86.28;;;48.13;;
18853;SDS011;9556;49.374;19.446;2022-11-20T12:55:31;83.60;;;46.97;;
18853;SDS011;9556;49.374;19.446;2022-11-20T12:58:02;88.80;;;46.95;;
18853;SDS011;9556;49.374;19.446;2022-11-20T13:00:31;88.70;;;46.63;;
18853;SDS011;9556;49.374;19.446;2022-11-20T13:03:20;83.53;;;45.58;;
18853;SDS011;9556;49.374;19.446;2022-11-20T13:05:55;79.72;;;44.65;;
18853;SDS011;9556;49.374;19.446;2022-11-20T13:08:25;77.90;;;44.35;;
18853;SDS011;9556;49.374;19.446;2022-11-20T13:10:55;79.95;;;43.38;;
18853;SDS011;9556;49.374;19.446;2022-11-20T13:13:24;72.85;;;43.63;;
18853;SDS011;9556;49.374;19.446;2022-11-20T13:15:54;73.75;;;43.28;;
18853;SDS011;9556;49.374;19.446;2022-11-20T13:18:23;75.82;;;42.25;;
18853;SDS011;9556;49.374;19.446;2022-11-20T13:20:51;81.22;;;42.78;;
18853;SDS011;9556;49.374;19.446;2022-11-20T13:23:26;72.53;;;41.08;;
18853;SDS011;9556;49.374;19.446;2022-11-20T13:26:03;72.68;;;40.03;;
18853;SDS011;9556;49.374;19.446;2022-11-20T13:28:30;76.30;;;39.78;;
18853;SDS011;9556;49.374;19.446;2022-11-20T13:30:57;71.93;;;39.13;;
18853;SDS011;9556;49.374;19.446;2022-11-20T13:33:29;73.13;;;39.10;;
18853;SDS011;9556;49.374;19.446;2022-11-20T13:35:58;66.45;;;37.72;;
18853;SDS011;9556;49.374;19.446;2022-11-20T13:38:27;72.60;;;36.90;;
18853;SDS011;9556;49.374;19.446;2022-11-20T13:40:55;66.13;;;36.33;;
18853;SDS011;9556;49.374;19.446;2022-11-20T13:43:26;62.80;;;36.00;;
18853;SDS011;9556;49.374;19.446;2022-11-20T13:45:56;63.72;;;34.97;;
18853;SDS011;9556;49.374;19.446;2022-11-20T13:48:24;65.30;;;34.50;;
18853;SDS011;9556;49.374;19.446;2022-11-20T13:50:55;62.25;;;34.33;;
18853;SDS011;9556;49.374;19.446;2022-11-20T13:53:29;64.22;;;34.15;;
18853;SDS011;9556;49.374;19.446;2022-11-20T13:55:59;59.83;;;33.40;;
18853;SDS011;9556;49.374;19.446;2022-11-20T13:58:29;63.33;;;33.90;;
18853;SDS011;9556;49.374;19.446;2022-11-20T14:01:07;62.40;;;33.55;;
18853;SDS011;9556;49.374;19.446;2022-11-20T14:03:35;55.97;;;31.65;;
18853;SDS011;9556;49.374;19.446;2022-11-20T14:06:02;59.30;;;31.67;;
18853;SDS011;9556;49.374;19.446;2022-11-20T14:08:33;56.83;;;31.98;;
18853;SDS011;9556;49.374;19.446;2022-11-20T14:11:03;65.07;;;32.13;;
18853;SDS011;9556;49.374;19.446;2022-11-20T14:13:30;59.33;;;30.35;;
18853;SDS011;9556;49.374;19.446;2022-11-20T14:15:57;54.22;;;29.92;;
18853;SDS011;9556;49.374;19.446;2022-11-20T14:18:25;66.15;;;30.95;;
18853;SDS011;9556;49.374;19.446;2022-11-20T14:20:53;61.55;;;30.33;;
18853;SDS011;9556;49.374;19.446;2022-11-20T14:23:23;59.65;;;28.77;;
18853;SDS011;9556;49.374;19.446;2022-11-20T14:25:52;69.70;;;29.05;;
18853;SDS011;9556;49.374;19.446;2022-11-20T14:28:21;64.28;;;29.48;;